Unbenanntes Dokument
Flugplatz Bielefeld Platzwetter

 

Aktuelles Platzwetter am Flugplatz Bielefeld EDLI

24.08.19 ,15:57 Uhr

METAR EDLI 241556Z 07008KT 9999 29/06 Q1020

 

Windwerte

 

Wolkenuntergrenzen

Wind aktuell:100 ° mit 7 kt
Wind 10 min Extrem:
40 ° bis 120 ° mit 5 kt bis 13 kt
Seitenwindkomponente: -1.5 kt
Wolkengrenze 1:
Wolkengrenze 2:
Wolkengrenze 3:

Webcam

Temperatur

       

Sichtweite:

20.000 Meter

29.6 °C
Taupunkt: 6.9 °C
Luftfeuchtigkeit: 23 %

Luftdruck:

QNH: 1020 hPa (30.12 in Hg)
QFE: 1003 hPa (29.62 in Hg)

Diese Daten werden automatisch ermittelt bzw. übertragen und sind nicht geprüft. Für die Richtigkeit wird daher keine Gewähr übernommen. Sie ersetzen im übrigen nicht die Flugwetterberatung. Alle Zeitangaben beziehen sich auf UTC. Die Seite wird einmal die Minute aktualisiert! Sollten Sie ein ältere Seite haben, so drücken Sie bitte auf den Reload Button Ihres Browsers!